Main page
METAR-TAF:

METAR-TAF

Airports :

Treviso, Italy

Treviso Airport

latitude: 45-39N, longitude: 012-11E, elevation: 18 m

Current weather observation

The report was made 38 minutes ago, at 21:50 UTC
Wind 3 kt from the North/Northeast
Temperature 1°C
Humidity 64%
Pressure 1027 hPa
Visibility 10 km or more
no clouds below 1500 m and no cumulonimbus

METAR: LIPH 182150Z 02003KT CAVOK 01/M05 Q1027

Time: 23:28 (22:28 UTC)

Forecast

The report was made 5 hours and 28 minutes ago, at 17:00 UTC
Forecast valid from 18 at 18 UTC to 19 at 18 UTC
Wind 6 kt from the North/Northeast
Visibility 10 km or more
no clouds below 1500 m and no cumulonimbus

TAF: LIPH 181700Z 1818/1918 03006KT CAVOK

Weather observations and forecasts of more than 4000 airports (METAR and TAF reports).

The available stations are represented by yellow and red dots on the map.

Hover mouse over dot to see the name of the station.

Then click to see weather observations and forecasts.

To change the map : click on the green buttons with a black cross to zoom in, on the green button with a dash to zoom out, or on the green arrows for adjacent maps.


METAR-TAF: